sensor_id;sensor_type;location;lat;lon;timestamp;pressure;altitude;pressure_sealevel;temperature;humidity
57763;BME280;43592;42.524;12.052;2022-10-16T00:00:41;97267.97;;;11.61;100.00
57763;BME280;43592;42.524;12.052;2022-10-16T00:03:07;97272.09;;;11.58;100.00
57763;BME280;43592;42.524;12.052;2022-10-16T00:05:33;97274.19;;;11.53;100.00
57763;BME280;43592;42.524;12.052;2022-10-16T00:08:03;97277.53;;;11.50;100.00
57763;BME280;43592;42.524;12.052;2022-10-16T00:10:28;97272.03;;;11.46;100.00
57763;BME280;43592;42.524;12.052;2022-10-16T00:12:54;97275.84;;;11.45;100.00
57763;BME280;43592;42.524;12.052;2022-10-16T00:15:19;97270.78;;;11.43;100.00
57763;BME280;43592;42.524;12.052;2022-10-16T00:17:45;97272.44;;;11.36;100.00
57763;BME280;43592;42.524;12.052;2022-10-16T00:20:10;97274.53;;;11.30;100.00
57763;BME280;43592;42.524;12.052;2022-10-16T00:22:36;97273.31;;;11.28;100.00
57763;BME280;43592;42.524;12.052;2022-10-16T00:25:01;97268.91;;;11.23;100.00
57763;BME280;43592;42.524;12.052;2022-10-16T00:27:27;97266.44;;;11.18;100.00
57763;BME280;43592;42.524;12.052;2022-10-16T00:29:52;97267.75;;;11.12;100.00
57763;BME280;43592;42.524;12.052;2022-10-16T00:32:18;97270.94;;;11.05;100.00
57763;BME280;43592;42.524;12.052;2022-10-16T00:34:44;97266.56;;;11.00;100.00
57763;BME280;43592;42.524;12.052;2022-10-16T00:37:09;97265.00;;;10.99;100.00
57763;BME280;43592;42.524;12.052;2022-10-16T00:39:35;97265.00;;;10.99;100.00
57763;BME280;43592;42.524;12.052;2022-10-16T00:42:00;97264.22;;;10.99;100.00
57763;BME280;43592;42.524;12.052;2022-10-16T00:47:11;97270.69;;;10.98;100.00
57763;BME280;43592;42.524;12.052;2022-10-16T00:49:38;97275.25;;;10.97;100.00
57763;BME280;43592;42.524;12.052;2022-10-16T00:52:04;97274.78;;;10.95;100.00
57763;BME280;43592;42.524;12.052;2022-10-16T00:54:31;97275.13;;;10.94;100.00
57763;BME280;43592;42.524;12.052;2022-10-16T00:56:57;97276.69;;;10.95;100.00
57763;BME280;43592;42.524;12.052;2022-10-16T00:59:29;97281.38;;;10.98;100.00
57763;BME280;43592;42.524;12.052;2022-10-16T01:01:55;97275.38;;;11.01;100.00
57763;BME280;43592;42.524;12.052;2022-10-16T01:04:21;97272.09;;;10.95;100.00
57763;BME280;43592;42.524;12.052;2022-10-16T01:09:30;97271.72;;;10.85;100.00
57763;BME280;43592;42.524;12.052;2022-10-16T01:12:14;97274.91;;;10.78;100.00
57763;BME280;43592;42.524;12.052;2022-10-16T01:14:42;97277.44;;;10.74;100.00
57763;BME280;43592;42.524;12.052;2022-10-16T01:17:11;97280.47;;;10.73;100.00
57763;BME280;43592;42.524;12.052;2022-10-16T01:22:35;97285.47;;;10.74;100.00
57763;BME280;43592;42.524;12.052;2022-10-16T01:25:02;97282.94;;;10.78;100.00
57763;BME280;43592;42.524;12.052;2022-10-16T01:27:31;97278.38;;;10.78;100.00
57763;BME280;43592;42.524;12.052;2022-10-16T01:37:44;97284.13;;;10.89;100.00
57763;BME280;43592;42.524;12.052;2022-10-16T01:40:12;97285.38;;;10.92;100.00
57763;BME280;43592;42.524;12.052;2022-10-16T01:42:43;97275.59;;;10.96;100.00
57763;BME280;43592;42.524;12.052;2022-10-16T01:45:12;97276.50;;;11.00;100.00
57763;BME280;43592;42.524;12.052;2022-10-16T01:47:39;97276.19;;;11.01;100.00
57763;BME280;43592;42.524;12.052;2022-10-16T01:50:06;97277.88;;;11.06;100.00
57763;BME280;43592;42.524;12.052;2022-10-16T01:52:34;97270.75;;;11.10;100.00
57763;BME280;43592;42.524;12.052;2022-10-16T01:55:00;97270.22;;;11.17;100.00
57763;BME280;43592;42.524;12.052;2022-10-16T01:57:27;97275.41;;;11.22;100.00
57763;BME280;43592;42.524;12.052;2022-10-16T01:59:54;97273.63;;;11.26;100.00
57763;BME280;43592;42.524;12.052;2022-10-16T02:02:21;97275.63;;;11.29;100.00
57763;BME280;43592;42.524;12.052;2022-10-16T02:07:49;97281.00;;;11.29;100.00
57763;BME280;43592;42.524;12.052;2022-10-16T02:10:14;97278.97;;;11.26;100.00
57763;BME280;43592;42.524;12.052;2022-10-16T02:12:41;97277.88;;;11.27;100.00
57763;BME280;43592;42.524;12.052;2022-10-16T02:15:08;97276.09;;;11.31;100.00
57763;BME280;43592;42.524;12.052;2022-10-16T02:17:34;97283.03;;;11.32;100.00
57763;BME280;43592;42.524;12.052;2022-10-16T02:20:00;97269.63;;;11.32;100.00
57763;BME280;43592;42.524;12.052;2022-10-16T02:22:32;97273.13;;;11.33;100.00
57763;BME280;43592;42.524;12.052;2022-10-16T02:24:59;97276.56;;;11.33;100.00
57763;BME280;43592;42.524;12.052;2022-10-16T02:29:54;97285.28;;;11.30;100.00
57763;BME280;43592;42.524;12.052;2022-10-16T02:32:24;97292.38;;;11.26;100.00
57763;BME280;43592;42.524;12.052;2022-10-16T02:34:53;97281.53;;;11.22;100.00
57763;BME280;43592;42.524;12.052;2022-10-16T02:37:19;97286.56;;;11.24;100.00
57763;BME280;43592;42.524;12.052;2022-10-16T02:39:45;97288.13;;;11.25;100.00
57763;BME280;43592;42.524;12.052;2022-10-16T02:42:14;97284.81;;;11.28;100.00
57763;BME280;43592;42.524;12.052;2022-10-16T02:44:39;97284.81;;;11.28;100.00
57763;BME280;43592;42.524;12.052;2022-10-16T02:47:05;97277.88;;;11.27;100.00
57763;BME280;43592;42.524;12.052;2022-10-16T02:49:31;97280.56;;;11.27;100.00
57763;BME280;43592;42.524;12.052;2022-10-16T02:51:56;97285.16;;;11.27;100.00
57763;BME280;43592;42.524;12.052;2022-10-16T02:54:22;97285.47;;;11.25;100.00
57763;BME280;43592;42.524;12.052;2022-10-16T02:56:47;97287.66;;;11.23;100.00
57763;BME280;43592;42.524;12.052;2022-10-16T02:59:13;97290.69;;;11.21;100.00
57763;BME280;43592;42.524;12.052;2022-10-16T03:01:38;97283.75;;;11.20;100.00
57763;BME280;43592;42.524;12.052;2022-10-16T03:04:04;97288.66;;;11.18;100.00
57763;BME280;43592;42.524;12.052;2022-10-16T03:06:29;97283.31;;;11.18;100.00
57763;BME280;43592;42.524;12.052;2022-10-16T03:08:55;97281.06;;;11.20;100.00
57763;BME280;43592;42.524;12.052;2022-10-16T03:11:20;97280.28;;;11.20;100.00
57763;BME280;43592;42.524;12.052;2022-10-16T03:13:45;97284.09;;;11.19;100.00
57763;BME280;43592;42.524;12.052;2022-10-16T03:16:11;97286.44;;;11.20;100.00
57763;BME280;43592;42.524;12.052;2022-10-16T03:18:36;97282.66;;;11.21;100.00
57763;BME280;43592;42.524;12.052;2022-10-16T03:21:02;97284.69;;;11.24;100.00
57763;BME280;43592;42.524;12.052;2022-10-16T03:23:27;97294.28;;;11.26;100.00
57763;BME280;43592;42.524;12.052;2022-10-16T03:25:54;97296.84;;;11.22;100.00
57763;BME280;43592;42.524;12.052;2022-10-16T03:28:19;97295.13;;;11.17;100.00
57763;BME280;43592;42.524;12.052;2022-10-16T03:30:44;97299.09;;;11.11;100.00
57763;BME280;43592;42.524;12.052;2022-10-16T03:33:10;97292.38;;;11.05;100.00
57763;BME280;43592;42.524;12.052;2022-10-16T03:35:36;97289.88;;;11.00;100.00
57763;BME280;43592;42.524;12.052;2022-10-16T03:38:01;97288.06;;;10.92;100.00
57763;BME280;43592;42.524;12.052;2022-10-16T03:40:27;97297.06;;;10.87;100.00
57763;BME280;43592;42.524;12.052;2022-10-16T03:42:52;97290.00;;;10.83;100.00
57763;BME280;43592;42.524;12.052;2022-10-16T03:45:22;97293.16;;;10.85;100.00
57763;BME280;43592;42.524;12.052;2022-10-16T03:47:47;97292.50;;;10.88;100.00
57763;BME280;43592;42.524;12.052;2022-10-16T03:50:13;97296.09;;;10.92;100.00
57763;BME280;43592;42.524;12.052;2022-10-16T03:52:39;97298.09;;;10.95;100.00
57763;BME280;43592;42.524;12.052;2022-10-16T03:55:04;97299.88;;;10.91;100.00
57763;BME280;43592;42.524;12.052;2022-10-16T03:57:30;97301.84;;;10.82;100.00
57763;BME280;43592;42.524;12.052;2022-10-16T03:59:55;97307.53;;;10.71;100.00
57763;BME280;43592;42.524;12.052;2022-10-16T04:02:21;97312.94;;;10.63;100.00
57763;BME280;43592;42.524;12.052;2022-10-16T04:04:46;97317.22;;;10.55;100.00
57763;BME280;43592;42.524;12.052;2022-10-16T04:07:12;97314.72;;;10.50;100.00
57763;BME280;43592;42.524;12.052;2022-10-16T04:09:37;97311.44;;;10.44;100.00
57763;BME280;43592;42.524;12.052;2022-10-16T04:12:03;97315.88;;;10.40;100.00
57763;BME280;43592;42.524;12.052;2022-10-16T04:14:28;97318.72;;;10.35;100.00
57763;BME280;43592;42.524;12.052;2022-10-16T04:16:54;97320.78;;;10.29;100.00
57763;BME280;43592;42.524;12.052;2022-10-16T04:19:19;97320.63;;;10.26;100.00
57763;BME280;43592;42.524;12.052;2022-10-16T04:21:45;97323.59;;;10.24;100.00
57763;BME280;43592;42.524;12.052;2022-10-16T04:24:10;97321.56;;;10.21;100.00
57763;BME280;43592;42.524;12.052;2022-10-16T04:26:36;97329.59;;;10.21;100.00
57763;BME280;43592;42.524;12.052;2022-10-16T04:29:02;97328.50;;;10.22;100.00
57763;BME280;43592;42.524;12.052;2022-10-16T04:31:27;97329.44;;;10.26;100.00
57763;BME280;43592;42.524;12.052;2022-10-16T04:33:53;97330.25;;;10.27;100.00
57763;BME280;43592;42.524;12.052;2022-10-16T04:36:18;97330.72;;;10.29;100.00
57763;BME280;43592;42.524;12.052;2022-10-16T04:38:44;97337.78;;;10.33;100.00
57763;BME280;43592;42.524;12.052;2022-10-16T04:41:09;97335.91;;;10.34;100.00
57763;BME280;43592;42.524;12.052;2022-10-16T04:43:35;97337.16;;;10.37;100.00
57763;BME280;43592;42.524;12.052;2022-10-16T04:46:00;97342.31;;;10.42;100.00
57763;BME280;43592;42.524;12.052;2022-10-16T04:48:27;97337.09;;;10.45;100.00
57763;BME280;43592;42.524;12.052;2022-10-16T04:50:52;97333.94;;;10.52;100.00
57763;BME280;43592;42.524;12.052;2022-10-16T04:53:18;97331.84;;;10.57;100.00
57763;BME280;43592;42.524;12.052;2022-10-16T04:55:43;97331.34;;;10.64;100.00
57763;BME280;43592;42.524;12.052;2022-10-16T04:58:09;97326.47;;;10.66;100.00
57763;BME280;43592;42.524;12.052;2022-10-16T05:00:35;97330.13;;;10.62;100.00
57763;BME280;43592;42.524;12.052;2022-10-16T05:03:00;97328.25;;;10.53;100.00
57763;BME280;43592;42.524;12.052;2022-10-16T05:05:27;97327.66;;;10.48;100.00
57763;BME280;43592;42.524;12.052;2022-10-16T05:07:53;97335.53;;;10.44;100.00
57763;BME280;43592;42.524;12.052;2022-10-16T05:10:18;97331.59;;;10.50;100.00
57763;BME280;43592;42.524;12.052;2022-10-16T05:12:44;97329.66;;;10.60;100.00
57763;BME280;43592;42.524;12.052;2022-10-16T05:15:09;97324.38;;;10.72;100.00
57763;BME280;43592;42.524;12.052;2022-10-16T05:17:35;97327.97;;;10.85;100.00
57763;BME280;43592;42.524;12.052;2022-10-16T05:20:01;97326.78;;;10.94;100.00
57763;BME280;43592;42.524;12.052;2022-10-16T05:22:26;97321.38;;;11.03;100.00
57763;BME280;43592;42.524;12.052;2022-10-16T05:24:52;97327.78;;;11.11;100.00
57763;BME280;43592;42.524;12.052;2022-10-16T05:27:17;97327.59;;;11.16;100.00
57763;BME280;43592;42.524;12.052;2022-10-16T05:29:46;97334.53;;;11.17;100.00
57763;BME280;43592;42.524;12.052;2022-10-16T05:32:12;97332.97;;;11.16;100.00
57763;BME280;43592;42.524;12.052;2022-10-16T05:34:38;97339.41;;;11.15;100.00
57763;BME280;43592;42.524;12.052;2022-10-16T05:37:05;97330.13;;;11.12;100.00
57763;BME280;43592;42.524;12.052;2022-10-16T05:39:30;97338.16;;;11.12;100.00
57763;BME280;43592;42.524;12.052;2022-10-16T05:41:56;97338.16;;;11.12;100.00
57763;BME280;43592;42.524;12.052;2022-10-16T05:44:21;97345.25;;;11.17;100.00
57763;BME280;43592;42.524;12.052;2022-10-16T05:46:47;97341.44;;;11.18;100.00
57763;BME280;43592;42.524;12.052;2022-10-16T05:49:12;97346.50;;;11.19;100.00
57763;BME280;43592;42.524;12.052;2022-10-16T05:51:38;97338.44;;;11.19;100.00
57763;BME280;43592;42.524;12.052;2022-10-16T05:54:03;97331.19;;;11.20;100.00
57763;BME280;43592;42.524;12.052;2022-10-16T05:56:29;97337.03;;;11.22;100.00
57763;BME280;43592;42.524;12.052;2022-10-16T05:58:54;97335.13;;;11.22;100.00
57763;BME280;43592;42.524;12.052;2022-10-16T06:01:20;97338.56;;;11.23;100.00
57763;BME280;43592;42.524;12.052;2022-10-16T06:03:49;97346.78;;;11.27;100.00
57763;BME280;43592;42.524;12.052;2022-10-16T06:06:16;97350.75;;;11.41;100.00
57763;BME280;43592;42.524;12.052;2022-10-16T06:08:42;97356.63;;;11.56;100.00
57763;BME280;43592;42.524;12.052;2022-10-16T06:11:09;97364.91;;;11.63;100.00
57763;BME280;43592;42.524;12.052;2022-10-16T06:13:36;97363.06;;;11.63;100.00
57763;BME280;43592;42.524;12.052;2022-10-16T06:16:01;97366.16;;;11.65;100.00
57763;BME280;43592;42.524;12.052;2022-10-16T06:18:28;97363.16;;;11.67;100.00
57763;BME280;43592;42.524;12.052;2022-10-16T06:20:54;97371.03;;;11.72;100.00
57763;BME280;43592;42.524;12.052;2022-10-16T06:23:19;97365.00;;;11.75;100.00
57763;BME280;43592;42.524;12.052;2022-10-16T06:25:45;97362.75;;;11.77;100.00
57763;BME280;43592;42.524;12.052;2022-10-16T06:28:11;97370.28;;;11.84;100.00
57763;BME280;43592;42.524;12.052;2022-10-16T06:30:36;97378.59;;;11.91;100.00
57763;BME280;43592;42.524;12.052;2022-10-16T06:33:01;97383.22;;;12.03;100.00
57763;BME280;43592;42.524;12.052;2022-10-16T06:35:27;97381.03;;;12.17;100.00
57763;BME280;43592;42.524;12.052;2022-10-16T06:37:54;97391.38;;;12.40;100.00
57763;BME280;43592;42.524;12.052;2022-10-16T06:40:20;97392.75;;;12.58;100.00
57763;BME280;43592;42.524;12.052;2022-10-16T06:42:45;97397.94;;;12.88;100.00
57763;BME280;43592;42.524;12.052;2022-10-16T06:45:10;97395.28;;;13.37;100.00
57763;BME280;43592;42.524;12.052;2022-10-16T06:47:36;97397.91;;;14.18;100.00
57763;BME280;43592;42.524;12.052;2022-10-16T06:50:02;97401.50;;;14.97;100.00
57763;BME280;43592;42.524;12.052;2022-10-16T06:52:28;97396.97;;;15.68;100.00
57763;BME280;43592;42.524;12.052;2022-10-16T06:54:54;97409.63;;;16.46;100.00
57763;BME280;43592;42.524;12.052;2022-10-16T06:57:19;97414.31;;;17.18;100.00
57763;BME280;43592;42.524;12.052;2022-10-16T06:59:45;97412.66;;;17.89;100.00
57763;BME280;43592;42.524;12.052;2022-10-16T07:02:10;97416.00;;;18.50;100.00
57763;BME280;43592;42.524;12.052;2022-10-16T07:04:36;97422.69;;;18.97;99.70
57763;BME280;43592;42.524;12.052;2022-10-16T07:07:02;97413.75;;;19.56;93.08
57763;BME280;43592;42.524;12.052;2022-10-16T07:09:27;97424.13;;;20.09;89.44
57763;BME280;43592;42.524;12.052;2022-10-16T07:11:53;97423.94;;;20.71;81.64
57763;BME280;43592;42.524;12.052;2022-10-16T07:14:19;97425.50;;;21.29;78.22
57763;BME280;43592;42.524;12.052;2022-10-16T07:16:45;97430.09;;;21.83;75.74
57763;BME280;43592;42.524;12.052;2022-10-16T07:19:11;97433.88;;;22.10;75.57
57763;BME280;43592;42.524;12.052;2022-10-16T07:21:39;97436.91;;;22.37;74.75
57763;BME280;43592;42.524;12.052;2022-10-16T07:24:05;97428.59;;;22.62;73.63
57763;BME280;43592;42.524;12.052;2022-10-16T07:26:32;97428.22;;;23.13;69.92
57763;BME280;43592;42.524;12.052;2022-10-16T07:28:58;97437.72;;;23.42;69.28
57763;BME280;43592;42.524;12.052;2022-10-16T07:31:24;97439.50;;;23.60;67.90
57763;BME280;43592;42.524;12.052;2022-10-16T07:33:50;97438.06;;;23.89;66.49
57763;BME280;43592;42.524;12.052;2022-10-16T07:36:17;97444.78;;;24.15;64.52
57763;BME280;43592;42.524;12.052;2022-10-16T07:38:43;97441.13;;;24.26;64.04
57763;BME280;43592;42.524;12.052;2022-10-16T07:41:09;97435.97;;;24.31;64.55
57763;BME280;43592;42.524;12.052;2022-10-16T07:43:35;97437.81;;;24.41;63.89
57763;BME280;43592;42.524;12.052;2022-10-16T07:46:02;97441.66;;;24.48;63.69
57763;BME280;43592;42.524;12.052;2022-10-16T07:48:28;97446.41;;;24.40;62.91
57763;BME280;43592;42.524;12.052;2022-10-16T07:51:01;97451.47;;;24.11;64.57
57763;BME280;43592;42.524;12.052;2022-10-16T07:53:26;97452.56;;;23.83;64.93
57763;BME280;43592;42.524;12.052;2022-10-16T07:55:56;97454.75;;;23.57;66.53
57763;BME280;43592;42.524;12.052;2022-10-16T07:58:22;97456.56;;;23.33;67.62
57763;BME280;43592;42.524;12.052;2022-10-16T08:00:48;97469.44;;;23.33;67.61
57763;BME280;43592;42.524;12.052;2022-10-16T08:03:13;97463.16;;;23.32;67.20
57763;BME280;43592;42.524;12.052;2022-10-16T08:05:39;97474.63;;;23.13;68.34
57763;BME280;43592;42.524;12.052;2022-10-16T08:08:04;97468.16;;;22.89;68.93
57763;BME280;43592;42.524;12.052;2022-10-16T08:10:30;97472.53;;;22.79;70.11
57763;BME280;43592;42.524;12.052;2022-10-16T08:12:56;97475.19;;;22.86;70.15
57763;BME280;43592;42.524;12.052;2022-10-16T08:15:22;97473.19;;;22.97;70.76
57763;BME280;43592;42.524;12.052;2022-10-16T08:17:54;97483.00;;;22.84;69.74
57763;BME280;43592;42.524;12.052;2022-10-16T08:20:20;97478.47;;;22.59;72.77
57763;BME280;43592;42.524;12.052;2022-10-16T08:22:45;97479.25;;;22.60;72.34
57763;BME280;43592;42.524;12.052;2022-10-16T08:25:11;97479.63;;;22.58;72.06
57763;BME280;43592;42.524;12.052;2022-10-16T08:27:36;97479.31;;;22.49;72.69
57763;BME280;43592;42.524;12.052;2022-10-16T08:30:02;97480.13;;;22.39;74.78
57763;BME280;43592;42.524;12.052;2022-10-16T08:32:27;97483.66;;;22.39;73.38
57763;BME280;43592;42.524;12.052;2022-10-16T08:34:53;97482.88;;;22.35;74.09
57763;BME280;43592;42.524;12.052;2022-10-16T08:37:18;97480.63;;;22.19;72.89
57763;BME280;43592;42.524;12.052;2022-10-16T08:39:44;97494.28;;;21.98;75.11
57763;BME280;43592;42.524;12.052;2022-10-16T08:44:39;97492.00;;;21.75;78.58
57763;BME280;43592;42.524;12.052;2022-10-16T08:47:16;97489.66;;;21.73;76.38
57763;BME280;43592;42.524;12.052;2022-10-16T08:49:45;97497.06;;;21.66;77.32
57763;BME280;43592;42.524;12.052;2022-10-16T08:52:16;97499.78;;;21.59;78.49
57763;BME280;43592;42.524;12.052;2022-10-16T08:54:42;97496.69;;;21.60;76.93
57763;BME280;43592;42.524;12.052;2022-10-16T08:57:09;97499.00;;;21.58;77.15
57763;BME280;43592;42.524;12.052;2022-10-16T08:59:36;97505.22;;;21.73;78.78
57763;BME280;43592;42.524;12.052;2022-10-16T09:02:02;97501.69;;;21.94;78.68
57763;BME280;43592;42.524;12.052;2022-10-16T09:04:52;97499.72;;;21.98;76.35
57763;BME280;43592;42.524;12.052;2022-10-16T09:07:22;97502.44;;;21.98;76.80
57763;BME280;43592;42.524;12.052;2022-10-16T09:12:24;97505.97;;;21.95;77.26
57763;BME280;43592;42.524;12.052;2022-10-16T09:17:23;97509.13;;;21.72;76.04
57763;BME280;43592;42.524;12.052;2022-10-16T09:20:27;97506.78;;;21.60;76.69
57763;BME280;43592;42.524;12.052;2022-10-16T09:22:43;97516.13;;;21.66;78.24
57763;BME280;43592;42.524;12.052;2022-10-16T09:25:16;97513.78;;;21.71;75.88
57763;BME280;43592;42.524;12.052;2022-10-16T09:27:43;97513.41;;;21.66;75.19
57763;BME280;43592;42.524;12.052;2022-10-16T09:32:38;97522.69;;;21.93;80.50
57763;BME280;43592;42.524;12.052;2022-10-16T09:35:04;97526.56;;;22.17;77.72
57763;BME280;43592;42.524;12.052;2022-10-16T09:37:36;97525.72;;;22.42;76.12
57763;BME280;43592;42.524;12.052;2022-10-16T09:40:02;97525.63;;;22.60;74.03
57763;BME280;43592;42.524;12.052;2022-10-16T09:42:31;97521.28;;;22.70;74.79
57763;BME280;43592;42.524;12.052;2022-10-16T09:44:58;97516.94;;;22.76;72.37
57763;BME280;43592;42.524;12.052;2022-10-16T09:47:24;97523.59;;;22.75;69.72
57763;BME280;43592;42.524;12.052;2022-10-16T09:49:51;97524.38;;;22.79;71.90
57763;BME280;43592;42.524;12.052;2022-10-16T09:52:18;97530.91;;;22.99;71.15
57763;BME280;43592;42.524;12.052;2022-10-16T09:54:54;97524.19;;;23.11;70.88
57763;BME280;43592;42.524;12.052;2022-10-16T09:57:20;97523.66;;;23.30;70.27
57763;BME280;43592;42.524;12.052;2022-10-16T09:59:49;97521.66;;;23.35;68.68
57763;BME280;43592;42.524;12.052;2022-10-16T10:02:16;97514.69;;;23.30;67.71
57763;BME280;43592;42.524;12.052;2022-10-16T10:04:48;97520.47;;;23.39;68.74
57763;BME280;43592;42.524;12.052;2022-10-16T10:07:18;97525.50;;;23.44;67.33
57763;BME280;43592;42.524;12.052;2022-10-16T10:09:44;97518.00;;;23.52;65.95
57763;BME280;43592;42.524;12.052;2022-10-16T10:12:30;97520.97;;;23.72;68.97
57763;BME280;43592;42.524;12.052;2022-10-16T10:14:58;97511.72;;;24.00;68.54
57763;BME280;43592;42.524;12.052;2022-10-16T10:17:27;97510.31;;;24.23;65.89
57763;BME280;43592;42.524;12.052;2022-10-16T10:19:53;97509.91;;;24.24;63.83
57763;BME280;43592;42.524;12.052;2022-10-16T10:22:39;97507.56;;;24.23;64.99
57763;BME280;43592;42.524;12.052;2022-10-16T10:32:53;97512.44;;;24.42;63.57
57763;BME280;43592;42.524;12.052;2022-10-16T10:38:04;97515.56;;;24.44;62.56
57763;BME280;43592;42.524;12.052;2022-10-16T10:40:45;97509.53;;;24.56;64.94
57763;BME280;43592;42.524;12.052;2022-10-16T10:46:07;97507.72;;;25.04;61.29
57763;BME280;43592;42.524;12.052;2022-10-16T10:51:30;97503.44;;;25.53;59.83
57763;BME280;43592;42.524;12.052;2022-10-16T10:54:06;97501.94;;;25.72;58.97
57763;BME280;43592;42.524;12.052;2022-10-16T11:01:59;97514.38;;;26.60;60.35
57763;BME280;43592;42.524;12.052;2022-10-16T11:04:33;97514.88;;;26.75;54.60
57763;BME280;43592;42.524;12.052;2022-10-16T11:07:02;97509.38;;;26.75;55.60
57763;BME280;43592;42.524;12.052;2022-10-16T11:09:34;97507.06;;;26.74;56.37
57763;BME280;43592;42.524;12.052;2022-10-16T11:14:43;97500.19;;;26.26;61.22
57763;BME280;43592;42.524;12.052;2022-10-16T11:17:12;97500.28;;;25.55;59.23
57763;BME280;43592;42.524;12.052;2022-10-16T11:20:22;97499.81;;;24.82;64.73
57763;BME280;43592;42.524;12.052;2022-10-16T11:22:32;97497.44;;;23.85;63.12
57763;BME280;43592;42.524;12.052;2022-10-16T11:27:36;97495.69;;;23.61;64.27
57763;BME280;43592;42.524;12.052;2022-10-16T11:30:04;97498.66;;;23.81;69.05
57763;BME280;43592;42.524;12.052;2022-10-16T11:32:35;97498.63;;;23.84;65.64
57763;BME280;43592;42.524;12.052;2022-10-16T11:35:11;97494.97;;;23.57;63.64
57763;BME280;43592;42.524;12.052;2022-10-16T11:37:42;97498.41;;;23.19;69.04
57763;BME280;43592;42.524;12.052;2022-10-16T11:40:19;97504.47;;;22.82;68.72
57763;BME280;43592;42.524;12.052;2022-10-16T11:42:53;97497.56;;;22.59;69.44
57763;BME280;43592;42.524;12.052;2022-10-16T11:45:29;97491.47;;;22.34;68.63
57763;BME280;43592;42.524;12.052;2022-10-16T11:48:00;97488.78;;;22.12;71.65
57763;BME280;43592;42.524;12.052;2022-10-16T11:50:42;97493.91;;;21.85;68.55
57763;BME280;43592;42.524;12.052;2022-10-16T11:55:41;97495.09;;;21.34;72.44
57763;BME280;43592;42.524;12.052;2022-10-16T11:58:09;97489.28;;;21.21;78.16
57763;BME280;43592;42.524;12.052;2022-10-16T12:00:46;97493.94;;;21.10;78.27
57763;BME280;43592;42.524;12.052;2022-10-16T12:03:34;97493.16;;;21.02;78.13
57763;BME280;43592;42.524;12.052;2022-10-16T12:06:27;97493.91;;;20.96;79.83
57763;BME280;43592;42.524;12.052;2022-10-16T12:08:56;97488.84;;;20.94;77.17
57763;BME280;43592;42.524;12.052;2022-10-16T12:11:37;97491.19;;;20.96;77.35
57763;BME280;43592;42.524;12.052;2022-10-16T12:14:04;97488.06;;;20.97;77.14
57763;BME280;43592;42.524;12.052;2022-10-16T12:16:30;97486.56;;;21.03;78.34
57763;BME280;43592;42.524;12.052;2022-10-16T12:19:29;97486.56;;;21.03;75.33
57763;BME280;43592;42.524;12.052;2022-10-16T12:21:48;97487.69;;;21.06;75.65
57763;BME280;43592;42.524;12.052;2022-10-16T12:26:53;97491.59;;;21.19;75.81
57763;BME280;43592;42.524;12.052;2022-10-16T12:31:48;97489.69;;;21.56;75.58
57763;BME280;43592;42.524;12.052;2022-10-16T12:36:50;97481.78;;;22.18;74.92
57763;BME280;43592;42.524;12.052;2022-10-16T12:39:23;97485.56;;;22.39;71.86
57763;BME280;43592;42.524;12.052;2022-10-16T12:42:03;97488.59;;;22.62;72.82
57763;BME280;43592;42.524;12.052;2022-10-16T12:44:35;97483.44;;;22.75;68.77
57763;BME280;43592;42.524;12.052;2022-10-16T12:47:01;97482.16;;;22.94;70.92
57763;BME280;43592;42.524;12.052;2022-10-16T12:51:56;97477.28;;;23.27;67.99
57763;BME280;43592;42.524;12.052;2022-10-16T12:56:58;97477.78;;;23.11;68.44
57763;BME280;43592;42.524;12.052;2022-10-16T12:59:31;97481.88;;;22.78;66.48
57763;BME280;43592;42.524;12.052;2022-10-16T13:10:09;97484.59;;;21.36;74.12
57763;BME280;43592;42.524;12.052;2022-10-16T13:15:19;97479.94;;;20.87;78.67
57763;BME280;43592;42.524;12.052;2022-10-16T13:18:01;97479.50;;;20.77;79.85
57763;BME280;43592;42.524;12.052;2022-10-16T13:26:07;97482.66;;;21.04;77.63
57763;BME280;43592;42.524;12.052;2022-10-16T13:28:31;97481.50;;;21.23;79.46
57763;BME280;43592;42.524;12.052;2022-10-16T13:30:59;97480.34;;;21.35;78.82
57763;BME280;43592;42.524;12.052;2022-10-16T13:33:31;97479.97;;;21.37;78.67
57763;BME280;43592;42.524;12.052;2022-10-16T13:35:57;97482.28;;;21.35;80.86
57763;BME280;43592;42.524;12.052;2022-10-16T13:38:30;97478.38;;;21.28;81.00
57763;BME280;43592;42.524;12.052;2022-10-16T13:41:03;97486.94;;;21.27;81.87
57763;BME280;43592;42.524;12.052;2022-10-16T13:46:15;97483.81;;;21.25;80.54
57763;BME280;43592;42.524;12.052;2022-10-16T13:48:41;97485.78;;;21.24;81.31
57763;BME280;43592;42.524;12.052;2022-10-16T13:51:17;97476.84;;;21.24;80.00
57763;BME280;43592;42.524;12.052;2022-10-16T13:53:45;97478.41;;;21.32;81.21
57763;BME280;43592;42.524;12.052;2022-10-16T13:56:12;97483.06;;;21.39;80.72
57763;BME280;43592;42.524;12.052;2022-10-16T13:58:38;97481.13;;;21.43;78.88
57763;BME280;43592;42.524;12.052;2022-10-16T14:01:05;97484.63;;;21.47;79.23
57763;BME280;43592;42.524;12.052;2022-10-16T14:03:31;97483.06;;;21.53;79.39
57763;BME280;43592;42.524;12.052;2022-10-16T14:05:58;97491.25;;;21.60;80.51
57763;BME280;43592;42.524;12.052;2022-10-16T14:08:25;97483.44;;;21.62;80.32
57763;BME280;43592;42.524;12.052;2022-10-16T14:10:55;97485.00;;;21.60;80.78
57763;BME280;43592;42.524;12.052;2022-10-16T14:13:31;97483.47;;;21.55;80.35
57763;BME280;43592;42.524;12.052;2022-10-16T14:15:59;97486.53;;;21.28;79.66
57763;BME280;43592;42.524;12.052;2022-10-16T14:18:28;97479.91;;;20.97;80.98
57763;BME280;43592;42.524;12.052;2022-10-16T14:20:54;97489.19;;;20.68;83.41